createdAt,value
2019-02-20T04:49:50.199Z,5.87
2019-02-20T04:52:20.793Z,5.80
2019-02-20T04:54:51.260Z,5.87
2019-02-20T04:57:21.758Z,5.99
2019-02-20T04:59:52.173Z,6.11
2019-02-20T05:02:22.606Z,6.19
2019-02-20T05:04:52.997Z,6.30
2019-02-20T05:07:23.460Z,6.38
2019-02-20T05:09:53.995Z,6.41
2019-02-20T05:12:24.397Z,6.48
2019-02-20T05:14:54.769Z,6.52
2019-02-20T05:17:25.176Z,6.55
2019-02-20T05:19:55.554Z,6.62
2019-02-20T05:22:25.956Z,6.67
2019-02-20T05:24:56.426Z,6.72
2019-02-20T05:27:26.858Z,6.71
2019-02-20T05:29:57.240Z,6.70
2019-02-20T05:32:27.625Z,6.73
2019-02-20T05:34:58.855Z,6.66
2019-02-20T05:37:29.285Z,6.69
2019-02-20T05:39:59.690Z,6.73
2019-02-20T05:42:30.073Z,6.74
2019-02-20T05:45:00.507Z,6.80
2019-02-20T05:47:32.024Z,6.79
2019-02-20T05:50:02.424Z,6.83
2019-02-20T05:52:32.812Z,6.82
2019-02-20T05:55:03.486Z,6.82
2019-02-20T05:57:33.863Z,6.81
2019-02-20T06:00:09.652Z,6.84
2019-02-20T06:02:41.576Z,6.85
2019-02-20T06:05:11.973Z,6.89
2019-02-20T06:07:42.373Z,6.84
2019-02-20T06:10:12.757Z,6.90
2019-02-20T06:12:43.146Z,6.89
2019-02-20T06:15:13.586Z,6.88
2019-02-20T06:17:43.985Z,6.97
2019-02-20T06:20:15.361Z,6.99
2019-02-20T06:22:45.748Z,6.87
2019-02-20T06:25:17.782Z,6.90
2019-02-20T06:27:48.163Z,6.87
2019-02-20T06:30:18.564Z,6.90
2019-02-20T06:32:48.953Z,6.87
2019-02-20T06:35:19.350Z,6.91
2019-02-20T06:38:46.101Z,7.07
2019-02-20T06:41:16.509Z,7.06
2019-02-20T06:43:48.111Z,7.09
2019-02-20T06:46:18.783Z,7.13
2019-02-20T06:48:49.204Z,7.16
2019-02-20T06:51:19.733Z,7.16
2019-02-20T06:53:50.208Z,7.29
2019-02-20T06:56:20.660Z,7.32
2019-02-20T06:58:51.224Z,7.36
2019-02-20T07:01:21.661Z,7.29
2019-02-20T07:03:52.054Z,7.31
2019-02-20T07:06:38.081Z,7.22
2019-02-20T07:09:43.508Z,7.32
2019-02-20T07:12:20.368Z,7.27
2019-02-20T07:14:56.653Z,7.49
2019-02-20T07:17:34.168Z,7.58
2019-02-20T07:20:23.120Z,7.68
2019-02-20T07:22:56.834Z,7.83
2019-02-20T07:25:39.241Z,7.77
2019-02-20T07:28:32.290Z,7.67
2019-02-20T07:31:02.751Z,7.50
2019-02-20T07:33:33.179Z,7.53
2019-02-20T07:36:04.647Z,7.46
2019-02-20T07:38:35.061Z,7.69
2019-02-20T07:41:05.460Z,7.68
2019-02-20T07:43:35.854Z,7.79
2019-02-20T07:46:06.321Z,7.81
2019-02-20T07:48:36.786Z,7.77
2019-02-20T07:51:07.197Z,7.94
2019-02-20T07:53:37.713Z,7.94
2019-02-20T07:56:08.106Z,7.96
2019-02-20T07:58:38.636Z,8.09
2019-02-20T08:01:09.085Z,8.29
2019-02-20T08:03:39.518Z,8.24
2019-02-20T08:06:09.950Z,8.23
2019-02-20T08:08:40.360Z,8.25
2019-02-20T08:11:10.784Z,8.14
2019-02-20T08:13:41.337Z,8.43
2019-02-20T08:19:01.808Z,8.99
2019-02-20T08:21:32.277Z,9.08
2019-02-20T08:24:02.909Z,9.22
2019-02-20T08:26:33.405Z,9.08
2019-02-20T08:29:03.967Z,9.08
2019-02-20T08:31:34.357Z,9.27
2019-02-20T08:34:04.766Z,9.15
2019-02-20T08:36:35.156Z,9.17
2019-02-20T08:39:05.782Z,9.16
2019-02-20T08:41:37.797Z,9.30
2019-02-20T08:44:08.183Z,9.35
2019-02-20T08:46:38.716Z,9.47
2019-02-20T08:49:09.133Z,9.49
2019-02-20T08:51:39.567Z,9.82
2019-02-20T08:54:10.079Z,9.89
2019-02-20T08:56:40.551Z,9.45
2019-02-20T08:59:11.065Z,9.45
2019-02-20T09:01:41.786Z,9.44
2019-02-20T09:04:13.448Z,9.27
2019-02-20T09:06:43.879Z,9.36
2019-02-20T09:09:14.270Z,9.43
2019-02-20T09:11:45.654Z,9.60
2019-02-20T09:14:16.283Z,9.66
2019-02-20T09:16:46.706Z,9.68
2019-02-20T09:19:17.247Z,9.64
2019-02-20T09:21:47.686Z,9.66
2019-02-20T09:24:18.253Z,9.58
2019-02-20T09:26:48.639Z,9.60
2019-02-20T09:29:19.157Z,9.65
2019-02-20T09:31:51.252Z,9.59
2019-02-20T09:34:21.755Z,9.73
2019-02-20T09:36:52.287Z,10.18
2019-02-20T09:39:36.946Z,9.93
2019-02-20T09:42:08.206Z,9.97
2019-02-20T09:44:42.308Z,9.88
2019-02-20T09:47:12.781Z,9.98
2019-02-20T09:49:43.792Z,9.89
2019-02-20T09:52:14.196Z,9.60
2019-02-20T09:54:45.709Z,9.72
2019-02-20T09:57:16.201Z,9.83
2019-02-20T09:59:47.671Z,9.79
2019-02-20T10:02:18.055Z,9.87
2019-02-20T10:04:48.628Z,10.07
2019-02-20T10:07:19.158Z,10.21
2019-02-20T10:09:49.631Z,10.14
2019-02-20T10:12:20.245Z,10.54
2019-02-20T10:14:50.750Z,10.42
2019-02-20T10:17:21.280Z,10.64
2019-02-20T10:19:51.810Z,10.72
2019-02-20T10:22:22.411Z,10.51
2019-02-20T10:24:52.806Z,10.61
2019-02-20T10:27:23.259Z,11.01
2019-02-20T10:29:53.665Z,11.24
2019-02-20T10:32:24.112Z,11.15
2019-02-20T10:34:54.752Z,11.42
2019-02-20T10:37:25.284Z,11.64
2019-02-20T10:39:57.242Z,11.90
2019-02-20T10:42:27.675Z,11.89
2019-02-20T10:44:58.102Z,11.75
2019-02-20T10:47:28.525Z,11.80
2019-02-20T10:49:58.934Z,11.57
2019-02-20T10:52:29.525Z,11.68
2019-02-20T10:55:00.235Z,11.58
2019-02-20T10:57:30.618Z,11.93
2019-02-20T11:00:01.176Z,11.72
2019-02-20T11:02:31.821Z,11.69
2019-02-20T11:05:02.286Z,11.40
2019-02-20T11:07:32.768Z,11.32
2019-02-20T11:10:03.200Z,11.35
2019-02-20T11:12:33.940Z,11.58
2019-02-20T11:15:05.950Z,11.70
2019-02-20T11:17:37.424Z,11.61
2019-02-20T11:20:10.233Z,11.53
2019-02-20T11:22:40.804Z,11.61
2019-02-20T11:25:13.997Z,11.57
2019-02-20T11:27:44.500Z,11.50
2019-02-20T11:30:23.115Z,11.47
2019-02-20T11:32:53.547Z,11.59
2019-02-20T11:35:23.972Z,11.50
2019-02-20T11:37:54.501Z,11.30
2019-02-20T11:40:24.899Z,11.78
2019-02-20T11:42:55.409Z,11.96
2019-02-20T11:45:25.991Z,11.78
2019-02-20T11:47:56.422Z,11.90
2019-02-20T11:50:26.867Z,11.83
2019-02-20T11:52:57.371Z,12.00
2019-02-20T11:55:27.766Z,11.96
2019-02-20T11:58:00.746Z,11.91
2019-02-20T12:00:31.455Z,12.02
2019-02-20T12:03:01.954Z,11.84
2019-02-20T12:05:32.483Z,11.57
2019-02-20T12:08:03.012Z,11.81
2019-02-20T12:10:33.448Z,11.92
2019-02-20T12:13:04.077Z,12.03
2019-02-20T12:15:34.511Z,12.01
2019-02-20T12:18:05.042Z,12.11
2019-02-20T12:20:35.567Z,11.92
2019-02-20T12:23:06.139Z,11.83
2019-02-20T12:25:36.629Z,11.91
2019-02-20T12:28:07.163Z,11.77
2019-02-20T12:30:38.134Z,11.79
2019-02-20T12:33:08.835Z,11.48
2019-02-20T12:35:39.271Z,11.41
2019-02-20T12:38:09.692Z,11.66
2019-02-20T12:40:40.120Z,11.71
2019-02-20T12:43:10.553Z,11.59
2019-02-20T12:45:40.975Z,11.79
2019-02-20T12:48:11.406Z,11.61
2019-02-20T12:50:42.956Z,11.79
2019-02-20T12:53:13.397Z,12.04
2019-02-20T12:55:43.821Z,11.99
2019-02-20T12:58:14.351Z,11.97
2019-02-20T13:00:44.983Z,11.89
2019-02-20T13:03:16.545Z,11.90
2019-02-20T13:05:47.021Z,11.70
2019-02-20T13:08:17.433Z,11.79
2019-02-20T13:10:47.928Z,11.90
2019-02-20T13:13:18.603Z,12.04
2019-02-20T13:15:49.188Z,11.91
2019-02-20T13:18:27.321Z,11.92
2019-02-20T13:20:59.883Z,11.83
2019-02-20T13:23:31.838Z,11.80
2019-02-20T13:26:02.370Z,11.79
2019-02-20T13:28:32.926Z,11.91
2019-02-20T13:31:03.322Z,11.98
2019-02-20T13:33:33.725Z,11.94
2019-02-20T13:36:04.602Z,11.91
2019-02-20T13:38:35.025Z,11.84
2019-02-20T13:41:05.760Z,11.87
2019-02-20T13:43:36.157Z,11.98
2019-02-20T13:46:06.724Z,11.99
2019-02-20T13:48:37.255Z,11.99
2019-02-20T13:51:07.786Z,12.06
2019-02-20T13:53:46.224Z,12.01
2019-02-20T13:56:10.508Z,12.07
2019-02-20T13:58:41.011Z,12.08
2019-02-20T14:01:11.453Z,11.86
2019-02-20T14:03:41.864Z,11.73
2019-02-20T14:06:12.263Z,11.61
2019-02-20T14:08:42.737Z,11.58
2019-02-20T14:11:13.393Z,11.37
2019-02-20T14:13:43.865Z,11.31
2019-02-20T14:16:14.888Z,11.37
2019-02-20T14:18:45.568Z,11.26
2019-02-20T14:21:15.985Z,11.24
2019-02-20T14:23:46.530Z,11.07
2019-02-20T14:26:16.923Z,10.95
2019-02-20T14:28:47.383Z,11.01
2019-02-20T14:31:18.122Z,11.07
2019-02-20T14:33:49.772Z,10.98
2019-02-20T14:36:20.206Z,10.90
2019-02-20T14:38:51.962Z,10.98
2019-02-20T14:41:22.424Z,11.01
2019-02-20T14:43:52.836Z,10.97
2019-02-20T14:46:23.345Z,11.01
2019-02-20T14:48:53.762Z,11.03
2019-02-20T14:51:24.209Z,11.03
2019-02-20T14:53:54.631Z,11.07
2019-02-20T14:56:25.518Z,11.14
2019-02-20T14:58:55.979Z,11.14
2019-02-20T15:01:27.454Z,11.09
2019-02-20T15:03:57.889Z,11.15
2019-02-20T15:06:28.727Z,11.09
2019-02-20T15:08:59.659Z,11.07
2019-02-20T15:11:30.239Z,11.00
2019-02-20T15:14:00.638Z,10.97
2019-02-20T15:16:31.155Z,11.02
2019-02-20T15:19:01.585Z,11.03
2019-02-20T15:21:32.119Z,11.04
2019-02-20T15:24:02.508Z,11.05
2019-02-20T15:26:32.970Z,11.05
2019-02-20T15:29:03.414Z,11.03
2019-02-20T15:31:34.154Z,11.03
2019-02-20T15:34:06.713Z,11.08
2019-02-20T15:36:37.143Z,11.12
2019-02-20T15:39:07.564Z,11.08
2019-02-20T15:41:38.162Z,10.99
2019-02-20T15:44:08.736Z,10.97
2019-02-20T15:46:39.269Z,10.90
2019-02-20T15:49:09.897Z,10.87
2019-02-20T15:51:40.313Z,10.84
2019-02-20T15:54:10.712Z,10.88
2019-02-20T15:56:41.248Z,10.84
2019-02-20T15:59:11.790Z,10.77
2019-02-20T16:01:42.216Z,10.76
2019-02-20T16:04:12.654Z,10.78
2019-02-20T16:06:44.428Z,10.77
2019-02-20T16:09:14.907Z,10.78
2019-02-20T16:11:45.465Z,10.77
2019-02-20T16:14:15.892Z,10.71
2019-02-20T16:16:46.623Z,10.65
2019-02-20T16:19:17.114Z,10.57
2019-02-20T16:21:47.526Z,10.52
2019-02-20T16:24:18.116Z,10.48
2019-02-20T16:26:48.537Z,10.42
2019-02-20T16:29:18.948Z,10.45
2019-02-20T16:31:49.714Z,10.40
2019-02-20T16:34:20.248Z,10.35
2019-02-20T16:36:50.672Z,10.32
2019-02-20T16:39:21.189Z,10.29
2019-02-20T16:41:59.224Z,10.11
2019-02-20T16:44:31.434Z,10.06
2019-02-20T16:47:04.505Z,10.02
2019-02-20T16:49:34.983Z,10.12
2019-02-20T16:52:05.503Z,10.06
2019-02-20T16:54:36.045Z,10.18
2019-02-20T16:57:06.893Z,10.19
2019-02-20T16:59:37.417Z,10.24
2019-02-20T17:02:08.080Z,10.26
2019-02-20T17:04:39.563Z,10.31
2019-02-20T17:07:10.143Z,10.30
2019-02-20T17:09:40.646Z,10.32
2019-02-20T17:12:11.177Z,10.35
2019-02-20T17:14:41.817Z,10.33
2019-02-20T17:17:13.773Z,10.34
2019-02-20T17:19:44.260Z,10.33
2019-02-20T17:22:14.738Z,10.33
2019-02-20T17:24:45.618Z,10.33
2019-02-20T17:27:16.109Z,10.30
2019-02-20T17:29:46.525Z,10.28
2019-02-20T17:32:16.946Z,10.29
2019-02-20T17:34:47.435Z,10.24
2019-02-20T17:37:17.831Z,10.13
2019-02-20T17:39:48.274Z,10.05
2019-02-20T17:42:18.772Z,10.15
2019-02-20T17:44:49.204Z,10.13
2019-02-20T17:47:19.682Z,10.13
2019-02-20T17:49:50.170Z,10.03
2019-02-20T17:52:21.008Z,10.03
2019-02-20T17:54:51.418Z,10.04
2019-02-20T17:57:21.958Z,10.02
2019-02-20T17:59:52.370Z,10.00
2019-02-20T18:02:22.925Z,10.01
2019-02-20T18:04:53.351Z,10.01
2019-02-20T18:07:23.747Z,10.01
2019-02-20T18:09:54.155Z,10.04
2019-02-20T18:12:24.638Z,10.07
2019-02-20T18:14:55.182Z,10.10
2019-02-20T18:17:26.413Z,10.11
2019-02-20T18:19:56.889Z,10.17
2019-02-20T18:22:27.340Z,10.17
2019-02-20T18:24:57.905Z,10.14
2019-02-20T18:27:28.313Z,10.17
2019-02-20T18:29:58.766Z,10.11
2019-02-20T18:32:29.196Z,10.09
2019-02-20T18:34:59.725Z,10.13
2019-02-20T18:37:30.258Z,10.08
2019-02-20T18:40:00.883Z,10.13
2019-02-20T18:42:31.412Z,10.11
2019-02-20T18:45:01.905Z,10.09
2019-02-20T18:47:33.911Z,10.01
2019-02-20T18:50:07.921Z,10.02
2019-02-20T18:52:38.333Z,10.00
2019-02-20T18:55:11.530Z,10.02
2019-02-20T18:57:42.078Z,10.01
2019-02-20T19:00:17.727Z,9.98
2019-02-20T19:02:48.252Z,9.95
2019-02-20T19:05:19.267Z,9.96
2019-02-20T19:07:50.046Z,10.01
2019-02-20T19:10:29.714Z,9.99
2019-02-20T19:13:06.659Z,9.92
2019-02-20T19:15:40.786Z,9.95
2019-02-20T19:18:14.687Z,9.93
2019-02-20T19:20:51.419Z,9.90
2019-02-20T19:24:00.489Z,9.86
2019-02-20T19:26:49.355Z,9.77
2019-02-20T19:29:40.525Z,9.77
2019-02-20T19:32:14.296Z,9.76
2019-02-20T19:35:13.788Z,9.71
2019-02-20T19:38:06.631Z,9.71
2019-02-20T19:40:47.321Z,9.77
2019-02-20T19:43:36.275Z,9.74
2019-02-20T19:46:31.389Z,9.64
2019-02-20T19:49:20.056Z,9.62
2019-02-20T19:52:14.672Z,9.57
2019-02-20T19:54:48.665Z,9.57
2019-02-20T19:57:37.605Z,9.54
2019-02-20T20:00:26.279Z,9.51
2019-02-20T20:02:59.911Z,9.52
2019-02-20T20:05:36.340Z,9.52
2019-02-20T20:08:16.091Z,9.48
2019-02-20T20:11:07.457Z,9.43
2019-02-20T20:13:46.834Z,9.45
2019-02-20T20:16:26.581Z,9.42
2019-02-20T20:19:29.172Z,9.42
2019-02-20T20:22:09.124Z,9.48
2019-02-20T20:24:51.999Z,9.48
2019-02-20T20:27:31.888Z,9.47
2019-02-20T20:30:35.701Z,9.43
